Time;durP1;ratioP1;P1;durP2;ratioP2;P2;SDS_P1;SDS_P2;PMS_P1;PMS_P2;Temp;Humidity;BMP_temperature;BMP_pressure;BME280_temperature;BME280_humidity;BME280_pressure;Samples;Min_cycle;Max_cycle;Signal;HPM_P1;HPM_P2
2023/01/15 00:01:50;;;;;;;4.35;4.15;;;1.00;99.90;;;;;;6099106;23;20834;-77
2023/01/15 00:04:17;;;;;;;4.53;4.22;;;1.00;99.90;;;;;;6098728;23;20756;-78
2023/01/15 00:06:43;;;;;;;5.03;4.72;;;0.90;99.90;;;;;;6124611;23;20450;-77
2023/01/15 00:09:14;;;;;;;5.28;4.97;;;0.90;99.90;;;;;;6098383;23;20402;-77
2023/01/15 00:11:41;;;;;;;4.72;4.43;;;0.90;99.90;;;;;;6099465;23;20387;-77
2023/01/15 00:14:08;;;;;;;5.20;4.90;;;0.90;99.90;;;;;;6098472;23;20375;-77
2023/01/15 00:16:35;;;;;;;5.13;4.82;;;0.90;99.90;;;;;;6124351;23;20429;-77
2023/01/15 00:19:03;;;;;;;4.90;4.60;;;0.90;99.90;;;;;;6097989;23;20382;-77
2023/01/15 00:21:30;;;;;;;5.05;4.75;;;0.80;99.90;;;;;;6099071;23;20384;-77
2023/01/15 00:29:28;;;;;;;6.50;6.00;;;0.80;99.90;;;;;;6123832;23;20740;-77
2023/01/15 00:32:01;;;;;;;5.40;5.10;;;0.70;99.90;;;;;;6099324;23;20403;-77
2023/01/15 00:34:29;;;;;;;5.72;5.32;;;0.70;99.90;;;;;;6098289;23;20836;-77
2023/01/15 00:36:57;;;;;;;4.80;4.50;;;0.80;99.90;;;;;;6124970;23;20371;-76
2023/01/15 00:39:25;;;;;;;5.47;5.07;;;0.80;99.90;;;;;;6124149;23;20849;-77
2023/01/15 00:41:53;;;;;;;5.03;4.72;;;0.80;99.90;;;;;;6099283;23;20693;-77
2023/01/15 00:44:20;;;;;;;4.70;4.40;;;0.80;99.90;;;;;;6123788;23;20384;-77
2023/01/15 00:46:48;;;;;;;4.82;4.53;;;0.80;99.90;;;;;;6124677;23;20406;-78
2023/01/15 00:49:15;;;;;;;4.78;4.47;;;0.80;99.90;;;;;;6098771;23;20371;-77
2023/01/15 00:51:42;;;;;;;5.45;5.10;;;0.80;99.90;;;;;;6124849;23;20748;-77
2023/01/15 00:54:09;;;;;;;4.47;4.28;;;0.80;99.90;;;;;;6098560;23;20411;-77
2023/01/15 00:56:37;;;;;;;4.30;4.07;;;0.80;99.90;;;;;;6097969;23;20828;-77
2023/01/15 00:59:04;;;;;;;4.90;4.60;;;0.80;99.90;;;;;;6097867;23;20379;-77
2023/01/15 01:01:32;;;;;;;5.32;4.93;;;0.80;99.90;;;;;;6096683;23;20374;-77
2023/01/15 01:04:00;;;;;;;5.50;5.20;;;0.80;99.90;;;;;;6097598;23;20936;-77
2023/01/15 01:06:27;;;;;;;4.70;4.40;;;0.80;99.90;;;;;;6096871;23;20746;-77
2023/01/15 01:08:54;;;;;;;5.10;4.80;;;0.80;99.90;;;;;;6097798;23;20375;-77
2023/01/15 01:11:25;;;;;;;5.28;4.97;;;0.80;99.90;;;;;;6072779;23;20382;-77
2023/01/15 01:13:53;;;;;;;5.25;4.95;;;0.70;99.90;;;;;;6097661;23;20700;-77
2023/01/15 01:16:26;;;;;;;6.00;5.55;;;0.70;99.90;;;;;;6096152;23;20372;-77
2023/01/15 01:18:53;;;;;;;4.90;4.60;;;0.70;99.90;;;;;;6097414;23;20387;-77
2023/01/15 01:21:20;;;;;;;5.43;5.03;;;0.80;99.90;;;;;;6096022;23;20372;-77
2023/01/15 01:23:47;;;;;;;4.53;4.30;;;0.80;99.90;;;;;;6097695;23;20440;-77
2023/01/15 01:26:15;;;;;;;4.80;4.50;;;0.80;99.90;;;;;;6095716;23;20844;-77
2023/01/15 01:28:42;;;;;;;5.18;4.88;;;0.80;99.90;;;;;;6097594;23;20380;-77
2023/01/15 01:31:09;;;;;;;4.60;4.30;;;0.90;99.90;;;;;;6096194;23;20408;-77
2023/01/15 01:33:36;;;;;;;4.50;4.20;;;0.90;99.90;;;;;;6123178;23;20368;-77
2023/01/15 01:36:03;;;;;;;4.72;4.50;;;0.90;99.90;;;;;;6122728;23;20383;-77
2023/01/15 01:38:30;;;;;;;4.55;4.30;;;0.90;99.90;;;;;;6096449;23;20423;-77
2023/01/15 01:40:57;;;;;;;4.57;4.30;;;0.90;99.90;;;;;;6097355;23;20371;-77
2023/01/15 01:43:27;;;;;;;4.70;4.40;;;0.90;99.90;;;;;;6096021;23;20375;-77
2023/01/15 01:45:54;;;;;;;4.28;4.07;;;1.00;99.90;;;;;;6122157;23;20376;-77
2023/01/15 01:48:29;;;;;;;4.70;4.40;;;0.90;99.90;;;;;;6121886;23;20709;-77
2023/01/15 01:50:58;;;;;;;4.70;4.40;;;1.00;99.90;;;;;;6097111;23;20414;-77
2023/01/15 01:53:29;;;;;;;5.15;4.85;;;1.00;99.90;;;;;;6096066;23;20805;-77
2023/01/15 01:55:57;;;;;;;5.00;4.70;;;1.00;99.90;;;;;;6096854;23;20970;-76
2023/01/15 01:58:29;;;;;;;5.10;4.80;;;1.00;99.90;;;;;;6095982;23;20388;-76
2023/01/15 02:00:58;;;;;;;4.68;4.38;;;0.90;99.90;;;;;;6097586;23;20447;-76
2023/01/15 08:51:50;;;;;;;5.78;5.47;;;2.80;99.90;;;;;;6150389;23;20410;-76
2023/01/15 08:54:19;;;;;;;5.20;4.90;;;3.00;99.90;;;;;;6127883;23;20392;-76
2023/01/15 08:56:46;;;;;;;4.30;4.10;;;3.10;99.90;;;;;;6114994;23;20374;-75
2023/01/15 08:59:13;;;;;;;5.32;5.03;;;3.20;99.90;;;;;;6126978;23;20393;-75
2023/01/15 09:01:43;;;;;;;4.85;4.55;;;3.20;99.90;;;;;;6149065;23;20378;-75
2023/01/15 09:04:15;;;;;;;4.90;4.60;;;3.30;99.90;;;;;;6126612;23;20366;-76
2023/01/15 09:06:43;;;;;;;5.25;4.95;;;3.50;99.90;;;;;;6125682;23;20385;-76
2023/01/15 09:09:10;;;;;;;4.78;4.57;;;3.70;99.90;;;;;;6127162;23;20374;-76
2023/01/15 09:11:40;;;;;;;5.20;4.93;;;3.80;99.90;;;;;;6151456;23;20374;-75
2023/01/15 09:14:08;;;;;;;6.10;5.80;;;4.00;99.90;;;;;;6152901;23;20904;-75
2023/01/15 09:16:56;;;;;;;5.20;4.90;;;4.10;99.90;;;;;;6130086;23;20408;-76
2023/01/15 09:19:23;;;;;;;5.13;4.82;;;4.30;99.90;;;;;;6152268;23;20896;-75
2023/01/15 09:21:50;;;;;;;5.03;4.73;;;4.40;99.90;;;;;;6125409;23;20742;-75
2023/01/15 09:24:17;;;;;;;5.50;5.10;;;4.50;99.90;;;;;;6125835;23;20373;-75
2023/01/15 09:26:44;;;;;;;5.65;5.35;;;4.60;99.90;;;;;;6124193;23;20385;-75
2023/01/15 09:29:10;;;;;;;5.20;4.90;;;4.70;99.90;;;;;;6151261;23;20381;-75
2023/01/15 09:31:37;;;;;;;5.35;5.05;;;4.80;99.90;;;;;;6126058;23;20429;-76
2023/01/15 09:34:06;;;;;;;5.40;5.10;;;5.00;99.90;;;;;;6126376;23;20394;-75
2023/01/15 09:36:34;;;;;;;5.65;5.35;;;5.10;99.90;;;;;;6125405;23;20400;-75
2023/01/15 09:39:03;;;;;;;5.80;5.47;;;5.20;99.90;;;;;;6126658;23;20421;-76
2023/01/15 09:42:04;;;;;;;5.40;5.10;;;5.40;99.90;;;;;;6126698;23;20874;-75
2023/01/15 09:45:09;;;;;;;5.05;4.75;;;5.60;99.90;;;;;;6151038;23;20365;-76
2023/01/15 09:47:48;;;;;;;4.95;4.68;;;5.80;99.90;;;;;;6116974;23;20750;-76
2023/01/15 09:50:30;;;;;;;4.03;3.83;;;6.00;99.90;;;;;;6125449;23;20385;-76
2023/01/15 09:53:27;;;;;;;3.70;3.50;;;6.10;99.90;;;;;;6152459;23;20382;-76
2023/01/15 09:55:56;;;;;;;3.50;3.30;;;6.30;99.90;;;;;;6151071;23;20394;-76
2023/01/15 09:58:39;;;;;;;2.70;2.60;;;6.40;98.40;;;;;;6126522;23;20850;-76
2023/01/15 10:01:15;;;;;;;2.20;2.10;;;6.60;98.20;;;;;;6126037;23;20374;-76
2023/01/15 10:03:58;;;;;;;2.30;2.10;;;6.70;96.60;;;;;;6125755;23;20897;-76
2023/01/15 10:06:47;;;;;;;2.33;2.22;;;6.90;97.30;;;;;;6152240;23;20382;-76
2023/01/15 10:09:20;;;;;;;2.20;2.10;;;7.00;96.40;;;;;;6126804;23;20392;-76
2023/01/15 10:14:48;;;;;;;2.65;2.53;;;7.30;95.60;;;;;;6148103;23;20445;-77
2023/01/15 10:17:24;;;;;;;2.45;2.35;;;7.40;94.10;;;;;;6151943;23;20370;-76
2023/01/15 10:19:52;;;;;;;2.65;2.55;;;7.60;94.40;;;;;;6124542;23;20892;-77
2023/01/15 10:22:45;;;;;;;2.80;2.60;;;7.70;94.20;;;;;;6126461;23;20393;-76
2023/01/15 10:25:19;;;;;;;2.50;2.40;;;7.90;94.00;;;;;;6151060;23;20393;-77
2023/01/15 10:27:49;;;;;;;2.72;2.53;;;8.10;92.10;;;;;;6125820;23;20374;-77
2023/01/15 10:30:20;;;;;;;2.90;2.70;;;8.30;92.50;;;;;;6125314;23;20366;-77
2023/01/15 10:32:54;;;;;;;2.70;2.60;;;8.40;89.90;;;;;;6152459;23;20469;-76
2023/01/15 10:35:53;;;;;;;2.92;2.72;;;8.50;87.80;;;;;;6127872;23;20405;-76
2023/01/15 10:38:53;;;;;;;2.57;2.47;;;8.60;86.70;;;;;;6125315;23;20378;-77
2023/01/15 10:41:19;;;;;;;2.60;2.50;;;8.80;84.30;;;;;;6120721;23;20378;-76
2023/01/15 10:43:58;;;;;;;2.47;2.38;;;8.90;83.80;;;;;;6126411;23;20720;-77
2023/01/15 10:46:36;;;;;;;2.83;2.72;;;9.10;83.30;;;;;;6124450;23;20374;-77
2023/01/15 10:49:12;;;;;;;3.13;3.03;;;9.30;78.80;;;;;;6126360;23;20373;-77
2023/01/15 10:52:12;;;;;;;3.75;3.55;;;9.40;77.90;;;;;;6150094;23;20425;-77
2023/01/15 10:54:47;;;;;;;3.78;3.58;;;9.30;79.40;;;;;;6131799;23;20444;-77
2023/01/15 10:57:29;;;;;;;3.80;3.60;;;9.30;81.60;;;;;;6125454;23;20405;-77
2023/01/15 10:59:59;;;;;;;4.43;4.22;;;9.30;81.30;;;;;;6150121;23;20378;-78
2023/01/15 11:03:03;;;;;;;4.05;3.85;;;9.10;82.00;;;;;;6125308;23;20378;-77
2023/01/15 11:05:32;;;;;;;4.40;4.20;;;8.90;84.80;;;;;;6125211;23;20382;-77
2023/01/15 11:08:01;;;;;;;3.83;3.63;;;9.10;84.90;;;;;;6126053;23;20365;-77
2023/01/15 11:10:48;;;;;;;4.43;4.13;;;9.30;83.20;;;;;;6128524;23;20386;-77
2023/01/15 11:19:36;;;;;;;4.00;3.80;;;9.20;83.40;;;;;;6150775;23;20373;-76
2023/01/15 11:22:12;;;;;;;3.00;2.90;;;9.10;82.70;;;;;;6150038;23;20378;-74
2023/01/15 11:24:54;;;;;;;3.10;3.00;;;9.40;82.20;;;;;;6126083;23;20687;-77
2023/01/15 11:27:31;;;;;;;2.63;2.53;;;9.40;80.50;;;;;;6150844;23;21247;-76
2023/01/15 11:30:00;;;;;;;2.40;2.30;;;9.40;76.50;;;;;;6124813;23;20759;-76
2023/01/15 11:32:37;;;;;;;2.72;2.63;;;9.60;76.80;;;;;;6151324;23;20482;-76
2023/01/15 11:35:07;;;;;;;2.50;2.40;;;9.50;76.10;;;;;;6149030;23;20378;-76
2023/01/15 11:37:34;;;;;;;2.90;2.80;;;9.80;76.00;;;;;;6151556;23;20366;-76
2023/01/15 11:40:06;;;;;;;2.40;2.30;;;10.00;75.10;;;;;;6124143;23;20366;-76
2023/01/15 11:51:12;;;;;;;2.40;2.30;;;10.10;70.80;;;;;;6150275;23;20453;-76
2023/01/15 11:54:03;;;;;;;2.80;2.60;;;10.10;71.90;;;;;;6151013;23;20409;-76
2023/01/15 11:56:33;;;;;;;2.53;2.42;;;10.20;72.20;;;;;;6124863;23;20739;-76
2023/01/15 11:59:09;;;;;;;3.15;3.05;;;10.10;73.20;;;;;;6124956;23;20433;-77
2023/01/15 12:01:45;;;;;;;2.50;2.40;;;10.10;73.60;;;;;;6124937;23;20378;-76
2023/01/15 12:04:40;;;;;;;2.30;2.20;;;10.20;72.00;;;;;;6124586;23;20381;-76
2023/01/15 12:07:12;;;;;;;2.30;2.20;;;10.20;72.20;;;;;;6151405;23;20396;-76
2023/01/15 12:10:09;;;;;;;2.30;2.20;;;10.20;72.70;;;;;;6150008;23;20675;-76
2023/01/15 12:13:12;;;;;;;2.50;2.40;;;10.20;72.70;;;;;;6149866;23;20458;-76
2023/01/15 12:16:03;;;;;;;2.80;2.70;;;10.20;73.40;;;;;;6149034;23;20370;-77
2023/01/15 12:18:57;;;;;;;2.70;2.60;;;10.30;73.90;;;;;;6124778;23;20411;-77
2023/01/15 12:21:47;;;;;;;2.45;2.35;;;10.30;71.80;;;;;;6124720;23;20437;-77
2023/01/15 12:24:24;;;;;;;2.65;2.55;;;10.40;71.30;;;;;;6125344;23;20366;-77
2023/01/15 12:27:24;;;;;;;3.33;3.22;;;10.40;70.70;;;;;;6149114;23;20449;-77
2023/01/15 12:30:13;;;;;;;2.80;2.70;;;10.20;73.10;;;;;;6077038;23;20386;-77
2023/01/15 12:32:49;;;;;;;2.80;2.70;;;10.30;73.40;;;;;;6113456;23;20743;-77
2023/01/15 12:35:55;;;;;;;2.70;2.60;;;10.00;73.80;;;;;;6125391;23;20381;-76
2023/01/15 12:38:54;;;;;;;2.70;2.60;;;10.20;75.20;;;;;;6124529;23;20441;-76
2023/01/15 12:47:19;;;;;;;3.40;3.20;;;9.80;78.90;;;;;;6150381;23;20370;-76
2023/01/15 12:49:55;;;;;;;3.53;3.33;;;9.80;81.00;;;;;;6125892;23;20402;-77
2023/01/15 12:52:27;;;;;;;3.30;3.10;;;9.70;82.20;;;;;;6125399;23;20371;-77
2023/01/15 12:55:07;;;;;;;4.13;3.92;;;9.70;82.40;;;;;;6152245;23;20458;-77
2023/01/15 12:57:38;;;;;;;3.83;3.63;;;9.60;83.50;;;;;;6149824;23;20886;-76
2023/01/15 13:00:08;;;;;;;3.63;3.50;;;9.60;84.40;;;;;;6151904;23;20374;-77
2023/01/15 13:02:48;;;;;;;4.07;3.88;;;9.50;87.70;;;;;;6123138;23;20378;-77
2023/01/15 13:05:53;;;;;;;3.83;3.63;;;9.60;88.50;;;;;;6151128;23;20385;-77
2023/01/15 13:08:24;;;;;;;3.60;3.50;;;9.70;87.80;;;;;;6125534;23;20409;-77
2023/01/15 13:10:52;;;;;;;4.18;3.97;;;9.80;85.60;;;;;;6152831;23;20370;-77
2023/01/15 13:13:34;;;;;;;4.07;3.88;;;9.70;85.70;;;;;;6124386;23;20409;-76
2023/01/15 13:16:27;;;;;;;4.10;3.80;;;9.50;88.60;;;;;;6127376;23;20734;-77
2023/01/15 13:19:03;;;;;;;4.40;4.20;;;9.30;90.60;;;;;;6151938;23;20734;-77
2023/01/15 13:21:33;;;;;;;4.60;4.40;;;9.20;91.70;;;;;;6151773;23;20398;-76
2023/01/15 13:24:14;;;;;;;3.97;3.78;;;9.20;91.60;;;;;;6126031;23;20425;-77
2023/01/15 13:27:15;;;;;;;3.93;3.73;;;9.30;90.50;;;;;;6125179;23;20479;-76
2023/01/15 13:30:14;;;;;;;4.97;4.78;;;9.20;91.30;;;;;;6151344;23;20378;-77
2023/01/15 13:32:51;;;;;;;4.30;4.10;;;9.40;91.70;;;;;;6102469;23;20702;-77
2023/01/15 13:35:30;;;;;;;4.00;3.80;;;9.50;90.80;;;;;;6126413;23;20715;-77
2023/01/15 13:38:00;;;;;;;4.10;3.90;;;9.40;91.20;;;;;;6125884;23;20822;-76
2023/01/15 13:40:35;;;;;;;6.53;6.13;;;9.30;91.70;;;;;;6126395;23;20367;-77
2023/01/15 13:43:04;;;;;;;8.70;8.10;;;9.30;91.90;;;;;;6125629;23;20421;-77
2023/01/15 13:45:40;;;;;;;20.73;19.23;;;9.30;92.30;;;;;;6125924;23;20886;-76
2023/01/15 13:48:14;;;;;;;7.07;6.68;;;9.20;92.10;;;;;;6126007;23;20440;-76
2023/01/15 13:50:50;;;;;;;7.10;6.70;;;9.10;92.40;;;;;;6125875;23;20433;-76
2023/01/15 13:53:44;;;;;;;4.60;4.40;;;9.20;92.50;;;;;;6125243;23;20404;-76
2023/01/15 13:56:15;;;;;;;4.80;4.60;;;9.20;92.50;;;;;;6124981;23;20456;-77
2023/01/15 13:59:04;;;;;;;4.32;4.13;;;9.20;92.50;;;;;;6126165;23;20382;-76
2023/01/15 14:01:33;;;;;;;4.57;4.38;;;9.20;92.80;;;;;;6149881;23;20362;-77
2023/01/15 14:04:16;;;;;;;3.80;3.60;;;9.20;92.60;;;;;;6150159;23;20710;-76
2023/01/15 14:06:45;;;;;;;4.97;4.68;;;9.30;92.20;;;;;;6124835;23;20425;-76
2023/01/15 14:09:25;;;;;;;3.97;3.78;;;9.30;92.50;;;;;;6150994;23;20680;-76
2023/01/15 14:12:20;;;;;;;4.50;4.30;;;9.40;92.10;;;;;;6150411;23;20370;-77
2023/01/15 14:15:07;;;;;;;3.88;3.67;;;9.50;92.00;;;;;;6125747;23;20457;-77
2023/01/15 14:18:01;;;;;;;4.22;4.03;;;9.50;91.10;;;;;;6124747;23;20409;-77
2023/01/15 14:20:50;;;;;;;4.13;3.90;;;9.50;90.70;;;;;;6150976;23;20414;-77
2023/01/15 14:23:34;;;;;;;3.90;3.70;;;9.60;90.30;;;;;;6151618;23;20425;-77
2023/01/15 14:26:12;;;;;;;3.88;3.67;;;9.60;90.30;;;;;;6150828;23;20369;-76
2023/01/15 14:28:57;;;;;;;3.77;3.57;;;9.60;90.80;;;;;;6125224;23;20374;-77
2023/01/15 14:31:27;;;;;;;4.00;3.80;;;9.50;91.40;;;;;;6149310;23;20441;-76
2023/01/15 14:34:13;;;;;;;4.20;4.00;;;9.50;91.30;;;;;;6146853;23;20751;-77
2023/01/15 14:36:59;;;;;;;4.10;3.90;;;9.40;92.10;;;;;;6148844;23;20393;-76
2023/01/15 14:39:35;;;;;;;4.23;4.03;;;9.40;92.60;;;;;;6124088;23;20421;-76
2023/01/15 14:45:15;;;;;;;4.22;4.03;;;9.00;94.30;;;;;;6150668;23;20386;-76
2023/01/15 14:47:53;;;;;;;4.15;3.95;;;9.00;94.90;;;;;;6150417;23;20373;-76
2023/01/15 14:50:38;;;;;;;5.13;4.82;;;9.00;95.00;;;;;;6150968;23;20751;-76
2023/01/15 14:53:14;;;;;;;4.32;4.03;;;8.90;95.60;;;;;;6150164;23;20424;-76
2023/01/15 14:56:03;;;;;;;4.70;4.40;;;8.80;95.90;;;;;;6150908;23;20370;-76
2023/01/15 14:58:30;;;;;;;4.88;4.68;;;8.80;96.30;;;;;;6125065;23;20382;-78
2023/01/15 15:01:03;;;;;;;3.80;3.60;;;8.80;96.50;;;;;;6126078;23;20434;-75
2023/01/15 15:03:37;;;;;;;4.07;3.88;;;8.70;96.80;;;;;;6150345;23;20723;-75
2023/01/15 15:06:06;;;;;;;3.60;3.50;;;8.70;97.00;;;;;;6151394;23;20370;-76
2023/01/15 15:08:34;;;;;;;3.65;3.45;;;8.60;97.60;;;;;;6125158;23;20385;-77
2023/01/15 15:12:17;;;;;;;3.42;3.33;;;8.50;98.20;;;;;;6125492;23;20369;-76
2023/01/15 15:13:55;;;;;;;3.85;3.65;;;8.50;98.80;;;;;;6150298;23;20382;-76
2023/01/15 15:16:27;;;;;;;3.13;3.03;;;8.60;99.10;;;;;;6125220;23;20428;-78
2023/01/15 15:19:04;;;;;;;3.10;2.90;;;8.70;98.60;;;;;;6125121;23;20436;-77
2023/01/15 15:21:37;;;;;;;3.60;3.40;;;8.70;98.60;;;;;;6125129;23;20385;-78
2023/01/15 15:24:12;;;;;;;4.25;4.05;;;8.70;98.20;;;;;;6151269;23;20711;-78
2023/01/15 15:26:39;;;;;;;3.63;3.42;;;8.60;99.10;;;;;;6125322;23;20378;-79
2023/01/15 15:29:15;;;;;;;3.30;3.10;;;8.60;99.30;;;;;;6127979;23;20371;-79
2023/01/15 15:31:52;;;;;;;5.95;5.55;;;8.70;99.10;;;;;;6123426;23;20382;-79
2023/01/15 15:34:32;;;;;;;3.70;3.50;;;8.60;98.90;;;;;;6123813;23;20381;-79
2023/01/15 15:37:02;;;;;;;3.00;2.90;;;8.50;99.60;;;;;;6149730;23;20433;-79
2023/01/15 15:39:46;;;;;;;3.60;3.40;;;8.60;99.30;;;;;;6150518;23;20377;-79
2023/01/15 15:51:32;;;;;;;2.50;2.40;;;8.70;98.10;;;;;;6148837;23;20382;-78
2023/01/15 15:54:02;;;;;;;6.80;6.43;;;8.90;97.30;;;;;;6124024;23;20385;-78
2023/01/15 15:56:32;;;;;;;3.25;3.05;;;8.90;96.80;;;;;;6150265;23;20362;-79
2023/01/15 15:58:59;;;;;;;3.75;3.55;;;8.90;96.80;;;;;;6149551;23;20366;-78
2023/01/15 16:01:26;;;;;;;3.90;3.70;;;8.70;97.20;;;;;;6124511;23;20373;-78
2023/01/15 16:03:54;;;;;;;3.80;3.60;;;8.60;98.20;;;;;;6125145;23;20378;-79
2023/01/15 16:06:26;;;;;;;3.77;3.67;;;8.60;98.60;;;;;;6123943;23;20385;-79
2023/01/15 16:09:03;;;;;;;4.30;4.00;;;8.60;98.50;;;;;;6151068;23;20378;-79
2023/01/15 16:11:33;;;;;;;3.40;3.20;;;8.50;98.80;;;;;;6124778;23;20441;-78
2023/01/15 16:14:05;;;;;;;3.75;3.55;;;8.50;98.40;;;;;;6125166;23;20444;-78
2023/01/15 16:16:33;;;;;;;5.40;5.10;;;8.40;99.70;;;;;;6143236;23;20373;-78
2023/01/15 16:19:01;;;;;;;4.72;4.53;;;8.20;99.90;;;;;;6125082;23;20704;-79
2023/01/15 16:21:32;;;;;;;4.03;3.83;;;8.20;99.90;;;;;;6123876;23;20370;-78
2023/01/15 16:24:04;;;;;;;3.47;3.38;;;8.30;99.90;;;;;;6125160;23;20374;-79
2023/01/15 16:26:48;;;;;;;5.50;5.30;;;8.40;99.40;;;;;;6124000;23;20412;-78
2023/01/15 16:29:25;;;;;;;3.72;3.53;;;8.40;99.50;;;;;;6151341;23;20416;-78
2023/01/15 16:31:55;;;;;;;3.95;3.75;;;8.20;99.90;;;;;;6126271;23;20401;-78
2023/01/15 16:34:31;;;;;;;4.72;4.53;;;8.20;99.90;;;;;;6125349;23;20461;-78
2023/01/15 16:37:00;;;;;;;4.22;4.03;;;8.30;99.90;;;;;;6127097;23;20378;-78
2023/01/15 16:39:29;;;;;;;6.17;5.87;;;8.10;99.90;;;;;;6151447;23;20374;-78
2023/01/15 16:41:58;;;;;;;4.30;4.10;;;8.10;99.90;;;;;;6152564;23;20743;-78
2023/01/15 16:44:43;;;;;;;7.60;7.20;;;8.10;99.90;;;;;;6125861;23;20392;-79
2023/01/15 16:47:24;;;;;;;6.55;6.15;;;8.00;99.90;;;;;;6126749;23;20381;-78
2023/01/15 16:49:51;;;;;;;8.98;8.52;;;8.00;99.90;;;;;;6151099;23;20764;-78
2023/01/15 16:52:55;;;;;;;7.45;7.05;;;8.10;99.90;;;;;;6152314;23;20374;-78
2023/01/15 16:55:34;;;;;;;5.53;5.23;;;8.10;99.90;;;;;;6090307;23;20480;-78
2023/01/15 16:58:13;;;;;;;4.93;4.73;;;8.00;99.90;;;;;;6118747;23;20381;-79
2023/01/15 17:00:43;;;;;;;5.82;5.53;;;8.00;99.90;;;;;;6125958;23;20396;-78
2023/01/15 17:03:15;;;;;;;4.65;4.45;;;7.90;99.90;;;;;;6125404;23;20378;-79
2023/01/15 17:05:43;;;;;;;5.37;5.07;;;7.90;99.90;;;;;;6126358;23;20449;-78
2023/01/15 17:08:30;;;;;;;5.60;5.28;;;7.90;99.90;;;;;;6151386;23;20837;-78
2023/01/15 17:11:02;;;;;;;5.60;5.30;;;8.00;99.80;;;;;;6126832;23;20478;-78
2023/01/15 17:13:39;;;;;;;7.25;6.85;;;8.10;99.40;;;;;;6125611;23;20679;-78
2023/01/15 17:16:16;;;;;;;6.00;5.70;;;8.10;99.00;;;;;;6151295;23;20429;-78
2023/01/15 17:18:44;;;;;;;12.07;11.45;;;8.10;98.80;;;;;;6126111;23;20429;-78
2023/01/15 17:21:18;;;;;;;9.35;8.85;;;8.10;99.00;;;;;;6125676;23;20362;-78
2023/01/15 17:23:45;;;;;;;6.55;6.25;;;8.00;99.90;;;;;;6125524;23;20366;-79
2023/01/15 17:26:23;;;;;;;6.35;6.05;;;8.00;99.90;;;;;;6124685;23;20394;-76
2023/01/15 17:28:51;;;;;;;10.48;9.82;;;8.00;99.50;;;;;;6125250;23;20378;-78
2023/01/15 17:31:22;;;;;;;8.05;7.65;;;8.00;98.90;;;;;;6122931;23;20427;-79
2023/01/15 17:33:49;;;;;;;14.88;13.98;;;8.00;98.40;;;;;;6124135;23;20762;-78
2023/01/15 17:36:17;;;;;;;7.10;6.72;;;8.00;98.10;;;;;;6125681;23;20424;-78
2023/01/15 17:38:44;;;;;;;10.17;9.57;;;8.00;97.80;;;;;;6126551;23;20378;-79
2023/01/15 17:41:17;;;;;;;49.08;45.10;;;7.90;97.90;;;;;;6128679;23;20408;-79
2023/01/15 17:43:44;;;;;;;18.03;17.07;;;7.80;97.90;;;;;;6127134;23;20371;-79
2023/01/15 17:46:11;;;;;;;10.90;10.10;;;7.50;96.90;;;;;;6152220;23;20382;-79
2023/01/15 17:48:39;;;;;;;146.10;130.48;;;7.20;98.10;;;;;;6127465;23;20374;-79
2023/01/15 17:51:10;;;;;;;86.55;72.93;;;7.10;98.40;;;;;;6152564;23;20437;-79
2023/01/15 17:53:37;;;;;;;19.98;17.98;;;7.00;98.90;;;;;;6152570;23;20376;-80
2023/01/15 18:07:23;;;;;;;5.18;4.88;;;6.50;99.40;;;;;;6153234;23;20370;-78
2023/01/15 18:09:52;;;;;;;6.43;6.03;;;6.50;99.50;;;;;;6126396;23;20390;-79
2023/01/15 18:12:19;;;;;;;6.22;5.90;;;6.40;99.80;;;;;;6130179;23;20382;-78
2023/01/15 18:14:46;;;;;;;6.75;6.35;;;6.20;99.90;;;;;;6128498;23;20382;-79
2023/01/15 18:17:12;;;;;;;6.90;6.50;;;6.10;99.90;;;;;;6126740;23;20857;-78
2023/01/15 18:19:39;;;;;;;6.45;6.05;;;5.80;99.90;;;;;;6151716;23;20381;-78
2023/01/15 18:22:07;;;;;;;4.97;4.72;;;5.80;99.90;;;;;;6152417;23;20690;-77
2023/01/15 18:24:34;;;;;;;4.80;4.50;;;5.80;99.90;;;;;;6124955;23;20437;-76
2023/01/15 18:27:01;;;;;;;5.25;4.95;;;5.50;99.90;;;;;;6152077;23;20962;-77
2023/01/15 18:29:28;;;;;;;5.90;5.60;;;4.70;99.90;;;;;;6124537;23;20382;-78
2023/01/15 18:31:54;;;;;;;8.80;8.20;;;4.30;99.90;;;;;;6151803;23;20370;-78
2023/01/15 18:34:21;;;;;;;7.53;7.03;;;4.30;99.90;;;;;;6148532;23;20933;-77
2023/01/15 18:36:48;;;;;;;9.90;9.20;;;4.30;99.90;;;;;;6125141;23;20381;-77
2023/01/15 18:39:15;;;;;;;8.70;8.10;;;4.30;99.90;;;;;;6151585;23;20389;-77
2023/01/15 18:47:12;;;;;;;9.10;8.50;;;4.40;99.90;;;;;;6147836;23;20370;-77
2023/01/15 18:49:40;;;;;;;7.53;7.13;;;4.40;99.90;;;;;;6147947;23;20370;-77
2023/01/15 18:54:54;;;;;;;7.72;7.22;;;4.40;99.90;;;;;;6149233;23;20390;-77
2023/01/15 18:57:22;;;;;;;6.90;6.50;;;4.40;99.90;;;;;;6150826;23;20374;-77
2023/01/15 18:59:50;;;;;;;5.82;5.43;;;4.40;99.90;;;;;;6123086;23;20393;-77
2023/01/15 19:02:20;;;;;;;4.88;4.65;;;4.40;99.90;;;;;;6125765;23;20779;-77
2023/01/15 19:04:48;;;;;;;4.20;4.00;;;4.30;99.90;;;;;;6124070;23;20832;-78
2023/01/15 19:07:15;;;;;;;4.97;4.67;;;4.30;99.90;;;;;;6124778;23;20370;-77
2023/01/15 19:09:42;;;;;;;5.85;5.50;;;4.30;99.90;;;;;;6150324;23;20857;-77
2023/01/15 19:12:09;;;;;;;6.23;5.90;;;4.20;99.90;;;;;;6150445;23;20374;-77
2023/01/15 19:20:11;;;;;;;6.80;6.40;;;3.60;99.90;;;;;;6149838;23;20389;-77
2023/01/15 19:25:26;;;;;;;7.50;7.00;;;3.30;99.90;;;;;;6150096;23;20976;-77
2023/01/15 19:27:54;;;;;;;7.57;7.13;;;3.30;99.90;;;;;;6124680;23;20374;-77
2023/01/15 19:30:21;;;;;;;7.20;6.80;;;3.40;99.90;;;;;;6150012;23;20370;-77
2023/01/15 19:32:48;;;;;;;7.57;7.18;;;3.40;99.90;;;;;;6150722;23;20378;-78
2023/01/15 19:35:16;;;;;;;7.38;6.97;;;3.40;99.90;;;;;;6123545;23;20386;-77
2023/01/15 19:37:43;;;;;;;7.38;6.95;;;3.30;99.90;;;;;;6149865;23;21213;-77
2023/01/15 19:40:20;;;;;;;7.20;6.80;;;3.30;99.90;;;;;;6124173;23;20373;-77
2023/01/15 19:50:17;;;;;;;6.30;6.00;;;3.20;99.90;;;;;;6150061;23;20370;-77
2023/01/15 19:52:33;;;;;;;6.40;6.10;;;2.80;99.90;;;;;;6150323;23;20692;-77
2023/01/15 19:54:14;;;;;;;7.32;6.82;;;2.80;99.90;;;;;;6151206;23;20378;-78
2023/01/15 19:56:41;;;;;;;8.07;7.57;;;2.70;99.90;;;;;;6124666;23;20377;-77
2023/01/15 19:59:08;;;;;;;7.60;7.10;;;2.70;99.90;;;;;;6126087;23;20370;-77
2023/01/15 20:01:34;;;;;;;6.90;6.50;;;2.70;99.90;;;;;;6125809;23;20425;-77
2023/01/15 20:04:02;;;;;;;6.60;6.20;;;2.70;99.90;;;;;;6153473;23;20380;-76
2023/01/15 20:06:28;;;;;;;6.90;6.50;;;2.70;99.90;;;;;;6126851;23;20396;-77
2023/01/15 20:08:55;;;;;;;7.33;6.93;;;2.70;99.90;;;;;;6128334;23;20492;-77
2023/01/15 20:11:22;;;;;;;8.25;7.72;;;2.80;99.90;;;;;;6152093;23;20429;-77
2023/01/15 20:13:51;;;;;;;8.93;8.32;;;2.80;99.90;;;;;;6128171;23;20374;-77
2023/01/15 20:16:21;;;;;;;8.75;8.25;;;2.70;99.90;;;;;;6127345;23;20378;-77
2023/01/15 20:18:51;;;;;;;8.63;8.03;;;2.70;99.90;;;;;;6127057;23;20427;-77
2023/01/15 20:21:19;;;;;;;8.70;8.20;;;2.70;99.90;;;;;;6128068;23;20794;-77
2023/01/15 20:23:46;;;;;;;8.23;7.72;;;2.60;99.90;;;;;;6152458;23;20409;-77
2023/01/15 20:26:13;;;;;;;7.80;7.30;;;2.70;99.90;;;;;;6153330;23;20437;-77
2023/01/15 20:28:41;;;;;;;7.68;7.20;;;2.70;99.90;;;;;;6152220;23;20428;-76
2023/01/15 20:31:17;;;;;;;7.45;7.05;;;2.60;99.90;;;;;;6127612;23;20384;-78
2023/01/15 20:33:46;;;;;;;7.22;6.82;;;2.40;99.90;;;;;;6126607;23;20387;-77
2023/01/15 20:36:14;;;;;;;6.38;6.07;;;2.30;99.90;;;;;;6127294;23;20410;-76
2023/01/15 20:38:41;;;;;;;6.97;6.57;;;2.30;99.90;;;;;;6126657;23;20742;-77
2023/01/15 20:46:40;;;;;;;6.60;6.20;;;1.90;99.90;;;;;;6152268;23;20433;-77
2023/01/15 20:51:54;;;;;;;6.57;6.28;;;1.90;99.90;;;;;;6151381;23;20817;-77
2023/01/15 20:54:22;;;;;;;7.45;6.97;;;1.90;99.90;;;;;;6152605;23;20437;-77
2023/01/15 20:56:51;;;;;;;7.07;6.68;;;1.80;99.90;;;;;;6126373;23;20432;-76
2023/01/15 20:59:18;;;;;;;8.35;7.85;;;1.80;99.90;;;;;;6127204;23;20833;-76
2023/01/15 21:01:44;;;;;;;8.63;8.10;;;1.70;99.90;;;;;;6126083;23;20382;-76
2023/01/15 21:04:12;;;;;;;10.20;9.55;;;1.80;99.90;;;;;;6152705;23;20378;-77
2023/01/15 21:06:39;;;;;;;9.50;8.90;;;1.70;99.90;;;;;;6151524;23;20503;-77
2023/01/15 21:09:07;;;;;;;10.43;9.77;;;1.80;99.90;;;;;;6126645;23;20381;-77
2023/01/15 21:11:34;;;;;;;8.95;8.38;;;1.80;99.90;;;;;;6125785;23;20420;-77
2023/01/15 21:14:02;;;;;;;9.83;9.20;;;1.80;99.90;;;;;;6152158;23;20373;-77
2023/01/15 21:16:29;;;;;;;8.77;8.27;;;2.00;99.90;;;;;;6126854;23;20398;-76
2023/01/15 21:18:59;;;;;;;8.18;7.70;;;2.00;99.90;;;;;;6126092;23;20443;-77
2023/01/15 21:21:27;;;;;;;8.43;7.93;;;2.10;99.90;;;;;;6127144;23;20390;-77
2023/01/15 21:23:55;;;;;;;9.45;8.85;;;2.20;99.90;;;;;;6125926;23;20424;-76
2023/01/15 21:26:23;;;;;;;8.25;7.75;;;2.40;99.90;;;;;;6126935;23;20374;-76
2023/01/15 21:28:53;;;;;;;7.85;7.35;;;2.40;99.90;;;;;;6125740;23;20405;-76
2023/01/15 21:31:21;;;;;;;8.73;8.10;;;2.40;99.90;;;;;;6152549;23;20386;-76
2023/01/15 21:33:48;;;;;;;8.65;8.05;;;2.40;99.90;;;;;;6151567;23;20388;-76
2023/01/15 21:36:17;;;;;;;7.53;7.13;;;2.50;99.90;;;;;;6126612;23;20378;-76
2023/01/15 21:38:49;;;;;;;7.45;6.95;;;2.30;99.90;;;;;;6125729;23;20462;-76
2023/01/15 21:41:17;;;;;;;8.10;7.60;;;2.20;99.90;;;;;;6126765;23;20984;-77